< < Back
Terminal Aerodrome Forecast


Current Version              Previous Versions:   1  2  3  4  5  6  7  8  9  

Terminal Aerodrome Forecast

071
FTUS44 KMOB 191700
TAFPNS
TAF
KPNS 191729Z 1918/2018 04008KT P6SM FEW200
     FM200000 03003KT P6SM FEW250=

Latest METAR

381
SAUS70 KWBC 201800 RRM
MTRPNS
METAR KPNS 201753Z 00000KT 10SM CLR 24/14 A3003 RMK AO2 SLP170 T02440144
10250 20122 58013


USA.gov is the U.S. government's official web portal to all federal, state and local government web resources and services.